Time;durP1;ratioP1;P1;durP2;ratioP2;P2;SDS_P1;SDS_P2;PMS_P1;PMS_P2;Temp;Humidity;BMP_temperature;BMP_pressure;BME280_temperature;BME280_humidity;BME280_pressure;Samples;Min_cycle;Max_cycle;Signal;HPM_P1;HPM_P2
2023/05/04 00:02:19;;;;;;;0.50;0.40;;;8.50;99.90;;;;;;5077630;28;20214;-80
2023/05/04 00:04:46;;;;;;;0.50;0.40;;;8.40;99.90;;;;;;5082693;28;20293;-79
2023/05/04 00:07:12;;;;;;;0.50;0.40;;;8.40;99.90;;;;;;5069187;28;20500;-80
2023/05/04 00:09:41;;;;;;;0.50;0.40;;;8.40;99.90;;;;;;5055995;28;20280;-78
2023/05/04 00:12:07;;;;;;;0.93;0.93;;;8.40;99.90;;;;;;5055536;28;20190;-79
2023/05/04 00:14:34;;;;;;;0.50;0.50;;;8.40;99.90;;;;;;5059313;28;20298;-79
2023/05/04 00:17:01;;;;;;;0.50;0.40;;;8.40;99.90;;;;;;5060050;28;20214;-80
2023/05/04 00:19:28;;;;;;;0.50;0.40;;;8.30;99.90;;;;;;5063440;28;20201;-79
2023/05/04 00:21:55;;;;;;;0.50;0.40;;;8.20;99.90;;;;;;5062711;28;20190;-79
2023/05/04 00:24:22;;;;;;;0.50;0.40;;;8.20;99.90;;;;;;5055721;28;20220;-79
2023/05/04 00:26:50;;;;;;;0.50;0.40;;;8.20;99.90;;;;;;5064911;28;20302;-80
2023/05/04 00:29:17;;;;;;;0.50;0.40;;;8.20;99.90;;;;;;5056416;28;20199;-79
2023/05/04 00:31:44;;;;;;;0.50;0.40;;;8.10;99.90;;;;;;5056107;28;20191;-79
2023/05/04 00:34:11;;;;;;;0.50;0.40;;;8.10;99.90;;;;;;5064726;28;20668;-79
2023/05/04 00:36:38;;;;;;;0.50;0.40;;;8.10;99.90;;;;;;5066858;28;20192;-79
2023/05/04 00:39:05;;;;;;;0.50;0.40;;;8.00;99.90;;;;;;5067354;28;20286;-78
2023/05/04 00:41:31;;;;;;;0.50;0.40;;;7.90;99.90;;;;;;5054015;28;21321;-78
2023/05/04 00:44:02;;;;;;;0.50;0.40;;;7.80;99.90;;;;;;5060948;28;20248;-79
2023/05/04 00:46:29;;;;;;;0.50;0.40;;;7.80;99.90;;;;;;5063458;28;20205;-76
2023/05/04 00:48:58;;;;;;;0.50;0.40;;;7.80;99.90;;;;;;5060163;28;20190;-79
2023/05/04 00:51:25;;;;;;;0.50;0.40;;;7.80;99.90;;;;;;5072269;28;20197;-79
2023/05/04 00:53:54;;;;;;;0.50;0.40;;;7.70;99.90;;;;;;5062377;28;20297;-79
2023/05/04 00:56:22;;;;;;;0.50;0.40;;;7.70;99.90;;;;;;5062112;28;20200;-79
2023/05/04 00:58:53;;;;;;;1.48;1.40;;;7.70;99.90;;;;;;5066951;28;20225;-79
2023/05/04 01:01:21;;;;;;;0.50;0.40;;;7.70;99.90;;;;;;5063736;28;20198;-80
2023/05/04 01:03:48;;;;;;;0.50;0.40;;;7.70;99.90;;;;;;5060767;28;20233;-78
2023/05/04 01:06:24;;;;;;;0.50;0.40;;;7.70;99.90;;;;;;5061226;28;20198;-79
2023/05/04 01:08:58;;;;;;;0.50;0.40;;;7.70;99.90;;;;;;5058834;28;20197;-79
2023/05/04 01:11:33;;;;;;;0.50;0.50;;;7.80;99.90;;;;;;5063333;28;20240;-79
2023/05/04 01:14:01;;;;;;;0.50;0.40;;;7.70;99.90;;;;;;5067638;28;20227;-78
2023/05/04 01:16:30;;;;;;;0.60;0.60;;;7.70;99.90;;;;;;5062308;28;20206;-75
2023/05/04 01:18:56;;;;;;;0.50;0.50;;;7.70;99.90;;;;;;5052895;28;20704;-79
2023/05/04 01:21:23;;;;;;;0.50;0.40;;;7.60;99.90;;;;;;5062085;28;20237;-79
2023/05/04 01:23:51;;;;;;;1.30;1.23;;;7.60;99.90;;;;;;5059473;28;20211;-80
2023/05/04 01:26:24;;;;;;;0.50;0.40;;;7.60;99.90;;;;;;5061490;28;20190;-79
2023/05/04 01:28:57;;;;;;;0.50;0.45;;;7.60;99.90;;;;;;5052966;28;20621;-80
2023/05/04 01:31:27;;;;;;;0.50;0.40;;;7.50;99.90;;;;;;5061123;28;20613;-79
2023/05/04 01:33:54;;;;;;;0.50;0.40;;;7.50;99.90;;;;;;5052742;28;20210;-79
2023/05/04 01:36:22;;;;;;;0.50;0.40;;;7.50;99.90;;;;;;5072690;28;20272;-80
2023/05/04 01:38:53;;;;;;;0.50;0.40;;;7.60;99.90;;;;;;5060682;28;20193;-79
2023/05/04 01:41:21;;;;;;;0.50;0.40;;;7.50;99.90;;;;;;5061049;28;20277;-79
2023/05/04 01:43:48;;;;;;;0.50;0.40;;;7.50;99.90;;;;;;5061107;28;20210;-78
2023/05/04 01:46:14;;;;;;;0.50;0.50;;;7.50;99.90;;;;;;5061176;28;20301;-79
2023/05/04 01:48:41;;;;;;;0.50;0.50;;;7.50;99.90;;;;;;5056052;28;21003;-77
2023/05/04 01:51:08;;;;;;;0.80;0.77;;;7.50;99.90;;;;;;5065372;28;20275;-79
2023/05/04 01:53:35;;;;;;;0.60;0.57;;;7.50;99.90;;;;;;5060438;28;20245;-79
2023/05/04 01:56:03;;;;;;;0.50;0.40;;;7.50;99.90;;;;;;5061286;28;20201;-79
2023/05/04 01:58:30;;;;;;;0.50;0.40;;;7.50;99.90;;;;;;5052531;28;20281;-80
2023/05/04 02:00:58;;;;;;;0.50;0.40;;;7.40;99.90;;;;;;5052881;28;20248;-79
2023/05/04 02:03:24;;;;;;;0.50;0.40;;;7.40;99.90;;;;;;5060749;28;20205;-76
2023/05/04 02:05:51;;;;;;;0.50;0.40;;;7.40;99.90;;;;;;5061046;28;20207;-79
2023/05/04 02:08:18;;;;;;;1.60;1.17;;;7.40;99.90;;;;;;5052158;28;20309;-78
2023/05/04 02:10:45;;;;;;;0.50;0.40;;;7.50;99.90;;;;;;5060453;28;20285;-79
2023/05/04 02:13:13;;;;;;;0.50;0.40;;;7.50;99.90;;;;;;5061585;28;20230;-79
2023/05/04 02:15:40;;;;;;;0.50;0.40;;;7.40;99.90;;;;;;5067160;28;20222;-79
2023/05/04 02:18:07;;;;;;;0.50;0.40;;;7.40;99.90;;;;;;5067995;28;20182;-80
2023/05/04 02:20:34;;;;;;;5.10;1.02;;;7.40;99.90;;;;;;5065311;28;20197;-79
2023/05/04 02:23:01;;;;;;;0.50;0.40;;;7.40;99.90;;;;;;5064602;28;20191;-80
2023/05/04 02:25:27;;;;;;;0.50;0.40;;;7.40;99.90;;;;;;5055936;28;20218;-75
2023/05/04 02:27:54;;;;;;;0.50;0.40;;;7.30;99.90;;;;;;5056009;28;20215;-79
2023/05/04 02:30:23;;;;;;;0.50;0.40;;;7.30;99.90;;;;;;5063767;28;20191;-79
2023/05/04 02:32:49;;;;;;;0.60;0.60;;;7.30;99.90;;;;;;5055873;28;20290;-79
2023/05/04 02:35:16;;;;;;;0.50;0.40;;;7.30;99.90;;;;;;5072065;28;20299;-79
2023/05/04 02:37:43;;;;;;;1.45;0.95;;;7.30;99.90;;;;;;5075592;28;20285;-79
2023/05/04 02:40:11;;;;;;;0.50;0.40;;;7.30;99.90;;;;;;5068661;28;20725;-79
2023/05/04 02:42:38;;;;;;;0.50;0.40;;;7.20;99.90;;;;;;5066456;28;20201;-74
2023/05/04 02:45:07;;;;;;;0.50;0.40;;;7.20;99.90;;;;;;5060721;28;20210;-79
2023/05/04 02:47:35;;;;;;;0.50;0.40;;;7.10;99.90;;;;;;5063940;28;20218;-79
2023/05/04 02:50:02;;;;;;;0.50;0.40;;;7.00;99.90;;;;;;5055170;28;20685;-79
2023/05/04 02:52:28;;;;;;;0.50;0.40;;;7.10;99.90;;;;;;5055294;28;20191;-79
2023/05/04 02:54:55;;;;;;;1.08;0.93;;;7.00;99.90;;;;;;5060074;28;20585;-79
2023/05/04 02:57:22;;;;;;;0.50;0.40;;;7.00;99.90;;;;;;5058623;28;20270;-79
2023/05/04 02:59:49;;;;;;;0.50;0.40;;;7.00;99.90;;;;;;5062710;28;20190;-78
2023/05/04 03:02:16;;;;;;;0.50;0.40;;;6.90;99.90;;;;;;5063118;28;20190;-79
2023/05/04 03:04:44;;;;;;;0.50;0.40;;;6.90;99.90;;;;;;5066717;28;20710;-78
2023/05/04 03:07:11;;;;;;;0.50;0.40;;;6.90;99.90;;;;;;5059841;28;20625;-78
2023/05/04 03:09:37;;;;;;;0.50;0.40;;;6.90;99.90;;;;;;5055074;28;20197;-78
2023/05/04 03:12:05;;;;;;;0.50;0.40;;;6.90;99.90;;;;;;5068954;28;20679;-81
2023/05/04 03:14:32;;;;;;;0.50;0.40;;;6.80;99.90;;;;;;5076002;28;20229;-79
2023/05/04 03:16:58;;;;;;;0.50;0.40;;;6.80;99.90;;;;;;5075946;28;20222;-78
2023/05/04 03:19:26;;;;;;;0.50;0.40;;;6.80;99.90;;;;;;5074936;28;20200;-79
2023/05/04 03:21:54;;;;;;;0.60;0.60;;;6.70;99.90;;;;;;5074588;28;20586;-80
2023/05/04 03:24:21;;;;;;;0.50;0.40;;;6.80;99.90;;;;;;5066741;28;20218;-80
2023/05/04 03:26:48;;;;;;;0.50;0.40;;;6.80;99.90;;;;;;5053921;28;20205;-78
2023/05/04 03:29:15;;;;;;;0.50;0.40;;;6.80;99.90;;;;;;5054341;28;20222;-80
2023/05/04 03:31:42;;;;;;;0.50;0.40;;;6.80;99.90;;;;;;5073932;28;20198;-79
2023/05/04 03:34:11;;;;;;;0.50;0.40;;;6.70;99.90;;;;;;5058963;28;20724;-78
2023/05/04 03:36:38;;;;;;;0.50;0.50;;;6.70;99.90;;;;;;5054510;28;20194;-79
2023/05/04 03:39:06;;;;;;;0.50;0.40;;;6.70;99.90;;;;;;5055339;28;20194;-79
2023/05/04 03:41:33;;;;;;;0.50;0.40;;;6.70;99.90;;;;;;5055108;28;20618;-79
2023/05/04 03:44:00;;;;;;;2.03;1.92;;;6.70;99.90;;;;;;5055451;28;20207;-79
2023/05/04 03:46:27;;;;;;;0.98;0.73;;;6.70;99.90;;;;;;5055243;28;20223;-80
2023/05/04 03:48:53;;;;;;;0.50;0.40;;;6.70;99.90;;;;;;5056400;28;20218;-79
2023/05/04 03:51:21;;;;;;;0.50;0.40;;;6.70;99.90;;;;;;5057055;28;20285;-80
2023/05/04 03:53:47;;;;;;;0.50;0.40;;;6.70;99.90;;;;;;5055707;28;20646;-79
2023/05/04 03:56:16;;;;;;;0.50;0.40;;;6.60;99.90;;;;;;5055937;28;20218;-80
2023/05/04 03:58:42;;;;;;;0.50;0.40;;;6.60;99.90;;;;;;5075384;28;20194;-80
2023/05/04 04:01:09;;;;;;;0.50;0.40;;;6.60;99.90;;;;;;5069726;28;20191;-80
2023/05/04 04:03:37;;;;;;;0.63;0.50;;;6.60;99.90;;;;;;5066775;28;20254;-80
2023/05/04 04:06:04;;;;;;;0.50;0.40;;;6.60;99.90;;;;;;5062735;28;20562;-80
2023/05/04 04:08:31;;;;;;;0.50;0.40;;;6.50;99.90;;;;;;5065433;28;20217;-82
2023/05/04 04:10:59;;;;;;;0.50;0.40;;;6.50;99.90;;;;;;5076362;28;20609;-80
2023/05/04 04:13:27;;;;;;;0.50;0.40;;;6.50;99.90;;;;;;5076561;28;20613;-80
2023/05/04 04:15:54;;;;;;;0.50;0.40;;;6.60;99.90;;;;;;5072117;28;20198;-80
2023/05/04 04:18:23;;;;;;;0.50;0.40;;;6.60;99.90;;;;;;5064528;28;20277;-79
2023/05/04 04:20:50;;;;;;;0.50;0.40;;;6.60;99.90;;;;;;5058803;28;20196;-80
2023/05/04 04:23:18;;;;;;;0.50;0.40;;;6.60;99.90;;;;;;5067851;28;20202;-79
2023/05/04 04:25:45;;;;;;;0.50;0.40;;;6.60;99.90;;;;;;5068117;28;20214;-80
2023/05/04 04:28:12;;;;;;;0.50;0.40;;;6.60;99.90;;;;;;5060903;28;20216;-79
2023/05/04 04:30:41;;;;;;;0.50;0.40;;;6.60;99.90;;;;;;5063900;28;20191;-80
2023/05/04 04:33:07;;;;;;;0.50;0.40;;;6.60;99.90;;;;;;5062082;28;20745;-79
2023/05/04 04:35:34;;;;;;;0.50;0.40;;;6.60;99.90;;;;;;5057657;28;20210;-81
2023/05/04 04:38:01;;;;;;;0.50;0.40;;;6.60;99.90;;;;;;5069210;28;20278;-80
2023/05/04 04:40:28;;;;;;;0.50;0.40;;;6.60;99.90;;;;;;5058806;28;20198;-80
2023/05/04 04:42:55;;;;;;;0.50;0.40;;;6.60;99.90;;;;;;5059503;28;20626;-81
2023/05/04 04:45:22;;;;;;;0.50;0.40;;;6.60;99.90;;;;;;5066947;28;20221;-80
2023/05/04 04:47:50;;;;;;;0.70;0.70;;;6.70;99.90;;;;;;5074602;28;20209;-81
2023/05/04 04:50:18;;;;;;;0.50;0.40;;;6.80;99.90;;;;;;5066405;28;20200;-81
2023/05/04 04:52:45;;;;;;;0.50;0.40;;;6.80;99.90;;;;;;5055204;28;20666;-80
2023/05/04 04:55:12;;;;;;;1.85;1.52;;;6.80;99.90;;;;;;5070163;28;20215;-83
2023/05/04 04:57:38;;;;;;;0.50;0.40;;;6.80;99.90;;;;;;5076174;28;20191;-79
2023/05/04 05:00:08;;;;;;;0.50;0.40;;;6.90;99.90;;;;;;5087251;28;20249;-82
2023/05/04 05:02:35;;;;;;;0.50;0.40;;;6.90;99.90;;;;;;5094262;28;20185;-80
2023/05/04 05:05:04;;;;;;;0.50;0.40;;;6.90;99.90;;;;;;5065097;28;20210;-80
2023/05/04 05:07:31;;;;;;;0.50;0.40;;;6.90;99.90;;;;;;5064641;28;20535;-81
2023/05/04 05:09:58;;;;;;;0.50;0.40;;;7.00;99.90;;;;;;5075869;28;20182;-81
2023/05/04 05:12:24;;;;;;;0.50;0.40;;;7.10;99.90;;;;;;5069156;28;20197;-79
2023/05/04 05:14:51;;;;;;;0.50;0.40;;;7.10;99.90;;;;;;5064098;28;20250;-80
2023/05/04 05:17:19;;;;;;;0.50;0.40;;;7.20;99.90;;;;;;5062929;28;20239;-81
2023/05/04 05:19:46;;;;;;;0.50;0.40;;;7.30;99.90;;;;;;5067190;28;20209;-79
2023/05/04 05:22:15;;;;;;;0.50;0.50;;;7.40;99.90;;;;;;5067539;28;20190;-81
2023/05/04 05:24:42;;;;;;;0.50;0.40;;;7.50;99.90;;;;;;5065009;28;20210;-79
2023/05/04 05:27:08;;;;;;;0.50;0.40;;;7.60;99.90;;;;;;5056146;28;20191;-80
2023/05/04 05:29:35;;;;;;;0.50;0.40;;;7.80;99.90;;;;;;5068583;28;20306;-80
2023/05/04 05:32:03;;;;;;;0.50;0.50;;;7.90;99.90;;;;;;5067450;28;20244;-79
2023/05/04 05:34:30;;;;;;;2.55;1.08;;;8.10;99.90;;;;;;5065371;28;20225;-76
2023/05/04 05:36:57;;;;;;;0.50;0.40;;;8.30;99.90;;;;;;5073295;28;20244;-79
2023/05/04 05:39:25;;;;;;;0.50;0.40;;;8.50;99.90;;;;;;5062498;28;20219;-79
2023/05/04 05:41:56;;;;;;;0.82;0.82;;;8.70;99.90;;;;;;5070244;28;20277;-82
2023/05/04 05:44:23;;;;;;;0.50;0.40;;;8.90;99.90;;;;;;5074640;28;20230;-81
2023/05/04 05:46:50;;;;;;;0.50;0.40;;;9.10;99.90;;;;;;5071770;28;20639;-80
2023/05/04 05:49:16;;;;;;;0.63;0.63;;;9.30;99.90;;;;;;5075100;28;20748;-81
2023/05/04 05:51:43;;;;;;;1.35;0.80;;;9.50;99.90;;;;;;5062029;28;20281;-78
2023/05/04 05:54:10;;;;;;;1.63;1.52;;;9.70;99.90;;;;;;5069905;28;20305;-81
2023/05/04 05:56:38;;;;;;;0.98;0.98;;;9.90;99.90;;;;;;5069328;28;20287;-80
2023/05/04 05:59:05;;;;;;;0.50;0.50;;;10.20;99.90;;;;;;5066802;28;20274;-81
2023/05/04 06:01:32;;;;;;;0.50;0.40;;;11.00;99.90;;;;;;5075190;28;20277;-78
2023/05/04 06:03:59;;;;;;;0.60;0.50;;;11.90;99.90;;;;;;5063966;28;20273;-79
2023/05/04 06:06:25;;;;;;;0.55;0.50;;;12.60;99.90;;;;;;5065120;28;20209;-80
2023/05/04 06:08:52;;;;;;;0.50;0.40;;;12.90;99.90;;;;;;5066847;28;20302;-80
2023/05/04 06:11:20;;;;;;;0.50;0.40;;;13.10;99.90;;;;;;5068407;28;20286;-81
2023/05/04 06:13:48;;;;;;;0.50;0.40;;;13.20;99.90;;;;;;5066819;28;20888;-81
2023/05/04 06:16:15;;;;;;;0.50;0.40;;;13.30;99.90;;;;;;5064509;28;20852;-80
2023/05/04 06:18:42;;;;;;;0.50;0.40;;;13.60;99.90;;;;;;5070368;28;20195;-80
2023/05/04 06:21:08;;;;;;;0.50;0.40;;;14.00;99.90;;;;;;5070178;28;20217;-81
2023/05/04 06:23:36;;;;;;;0.50;0.40;;;14.80;99.90;;;;;;5070743;28;20444;-80
2023/05/04 06:26:04;;;;;;;1.73;0.57;;;15.80;99.90;;;;;;5066152;28;20437;-80
2023/05/04 06:28:31;;;;;;;0.60;0.40;;;16.50;99.90;;;;;;5059255;28;20484;-80
2023/05/04 06:31:00;;;;;;;0.50;0.40;;;17.20;98.60;;;;;;5050758;28;20447;-81
2023/05/04 06:33:27;;;;;;;1.43;0.60;;;17.60;93.80;;;;;;5066316;28;20570;-80
2023/05/04 06:35:54;;;;;;;0.50;0.40;;;17.80;91.30;;;;;;5059358;28;20559;-81
2023/05/04 06:38:21;;;;;;;0.50;0.40;;;17.70;91.20;;;;;;5059295;28;20463;-81
2023/05/04 06:40:48;;;;;;;0.50;0.33;;;18.20;89.30;;;;;;5060377;28;20444;-82
2023/05/04 06:43:14;;;;;;;0.50;0.30;;;18.50;85.30;;;;;;5064866;28;20968;-79
2023/05/04 06:45:42;;;;;;;0.50;0.40;;;18.80;83.80;;;;;;5067643;28;20972;-81
2023/05/04 06:48:10;;;;;;;0.60;0.50;;;19.10;83.90;;;;;;5069663;28;20444;-81
2023/05/04 06:50:38;;;;;;;1.50;1.40;;;19.70;80.80;;;;;;5060591;28;20479;-82
2023/05/04 06:53:07;;;;;;;0.50;0.40;;;20.30;77.40;;;;;;5072732;28;20519;-80
2023/05/04 06:55:33;;;;;;;0.50;0.30;;;20.30;75.60;;;;;;5080514;28;20543;-80
2023/05/04 06:58:00;;;;;;;0.50;0.30;;;20.60;73.70;;;;;;5059425;28;20433;-79
2023/05/04 07:00:27;;;;;;;0.50;0.40;;;21.00;72.60;;;;;;5066222;28;21004;-80
2023/05/04 07:02:54;;;;;;;0.50;0.30;;;21.70;71.70;;;;;;5066329;28;20441;-80
2023/05/04 07:05:23;;;;;;;0.50;0.30;;;22.50;69.00;;;;;;5058120;28;20540;-81
2023/05/04 07:07:50;;;;;;;0.50;0.40;;;23.40;66.40;;;;;;5066172;28;20438;-81
2023/05/04 07:10:18;;;;;;;0.50;0.30;;;24.10;66.10;;;;;;5063204;28;20547;-79
2023/05/04 07:12:45;;;;;;;0.50;0.30;;;24.80;62.60;;;;;;5067703;28;20463;-81
2023/05/04 07:15:12;;;;;;;0.50;0.30;;;25.70;59.90;;;;;;5057254;28;20469;-79
2023/05/04 07:17:40;;;;;;;0.50;0.30;;;26.20;60.30;;;;;;5065882;28;20443;-79
2023/05/04 07:20:07;;;;;;;0.50;0.30;;;26.70;57.70;;;;;;5073272;28;20533;-81
2023/05/04 07:22:35;;;;;;;0.50;0.40;;;26.60;55.20;;;;;;5066015;28;20519;-81
2023/05/04 07:25:02;;;;;;;0.50;0.30;;;26.10;55.70;;;;;;5064884;28;20890;-80
2023/05/04 07:27:30;;;;;;;0.50;0.40;;;26.10;55.80;;;;;;5056998;28;20445;-80
2023/05/04 07:29:57;;;;;;;0.50;0.30;;;26.30;56.10;;;;;;5065054;28;20856;-80
2023/05/04 07:32:23;;;;;;;0.50;0.30;;;26.10;54.90;;;;;;5064731;28;20824;-80
2023/05/04 07:34:50;;;;;;;0.60;0.50;;;26.20;55.30;;;;;;5066399;28;21039;-80
2023/05/04 07:37:17;;;;;;;0.50;0.40;;;26.30;54.90;;;;;;5062374;28;20524;-81
2023/05/04 07:39:46;;;;;;;0.50;0.30;;;26.50;55.00;;;;;;5065768;28;20532;-80
2023/05/04 07:42:12;;;;;;;0.50;0.30;;;27.00;54.30;;;;;;5062886;28;20528;-80
2023/05/04 07:44:40;;;;;;;0.50;0.30;;;27.20;54.90;;;;;;5063638;28;20825;-79
2023/05/04 07:47:07;;;;;;;0.50;0.30;;;27.30;55.30;;;;;;5055737;28;20559;-79
2023/05/04 07:49:33;;;;;;;0.50;0.30;;;27.30;54.60;;;;;;5056271;28;20477;-80
2023/05/04 07:52:00;;;;;;;0.50;0.40;;;27.50;53.10;;;;;;5059726;28;20799;-81
2023/05/04 07:54:27;;;;;;;0.50;0.30;;;27.90;53.20;;;;;;5061389;28;20472;-81
2023/05/04 07:56:55;;;;;;;0.50;0.40;;;28.20;54.20;;;;;;5058264;28;21332;-81
2023/05/04 07:59:22;;;;;;;0.50;0.30;;;28.50;53.20;;;;;;5068391;28;20437;-81
2023/05/04 08:01:49;;;;;;;0.50;0.30;;;29.10;52.50;;;;;;5065945;28;20543;-79
2023/05/04 08:04:16;;;;;;;0.50;0.30;;;29.20;51.60;;;;;;5069096;28;20539;-81
2023/05/04 08:06:43;;;;;;;0.50;0.30;;;29.60;51.20;;;;;;5058513;28;20515;-80
2023/05/04 08:09:09;;;;;;;0.50;0.30;;;29.50;51.20;;;;;;5055911;28;21133;-81
2023/05/04 08:11:36;;;;;;;0.50;0.50;;;29.50;49.90;;;;;;5063269;28;20509;-80
2023/05/04 08:14:04;;;;;;;0.50;0.30;;;29.60;52.00;;;;;;5050548;28;20495;-83
2023/05/04 08:16:31;;;;;;;0.50;0.30;;;29.10;49.30;;;;;;5066132;28;20518;-81
2023/05/04 08:19:00;;;;;;;0.50;0.30;;;29.00;52.30;;;;;;5066317;28;20528;-81
2023/05/04 08:21:27;;;;;;;0.50;0.30;;;29.50;52.50;;;;;;5066347;28;20929;-81
2023/05/04 08:23:54;;;;;;;0.83;0.83;;;29.80;51.40;;;;;;5055286;28;21002;-81
2023/05/04 08:26:21;;;;;;;0.53;0.53;;;30.50;50.00;;;;;;5054022;28;20497;-81
2023/05/04 08:28:47;;;;;;;0.50;0.30;;;30.40;49.40;;;;;;5055049;28;20435;-81
2023/05/04 08:31:17;;;;;;;0.50;0.30;;;31.00;49.80;;;;;;5061303;28;20457;-81
2023/05/04 08:33:44;;;;;;;2.53;2.43;;;30.90;48.50;;;;;;5055155;28;20452;-80
2023/05/04 08:36:12;;;;;;;0.50;0.30;;;31.20;47.90;;;;;;5061736;28;20477;-81
2023/05/04 08:38:38;;;;;;;0.70;0.47;;;31.10;48.50;;;;;;5070890;28;20444;-82
2023/05/04 08:41:07;;;;;;;2.00;0.77;;;30.80;49.30;;;;;;5058071;28;20827;-80
2023/05/04 08:43:35;;;;;;;0.50;0.40;;;30.30;48.60;;;;;;5058509;28;20441;-79
2023/05/04 08:46:02;;;;;;;0.50;0.30;;;30.40;48.70;;;;;;5057377;28;20444;-80
2023/05/04 08:48:32;;;;;;;0.50;0.30;;;30.50;48.70;;;;;;5059026;28;20460;-81
2023/05/04 08:50:59;;;;;;;0.57;0.57;;;30.90;48.80;;;;;;5070541;28;21018;-81
2023/05/04 08:53:27;;;;;;;0.50;0.30;;;31.50;48.00;;;;;;5060409;28;20439;-80
2023/05/04 08:55:55;;;;;;;1.53;1.43;;;32.10;48.10;;;;;;5065202;28;20439;-82
2023/05/04 08:58:24;;;;;;;0.50;0.30;;;32.60;47.90;;;;;;5073549;28;20600;-80
2023/05/04 09:00:52;;;;;;;0.50;0.30;;;32.70;47.00;;;;;;5064245;28;20499;-81
2023/05/04 09:03:20;;;;;;;0.57;0.57;;;32.50;49.30;;;;;;5066802;28;20436;-81
2023/05/04 09:05:49;;;;;;;0.50;0.30;;;32.60;47.00;;;;;;5065280;28;20453;-80
2023/05/04 09:08:19;;;;;;;0.50;0.30;;;33.10;46.40;;;;;;5068805;28;21058;-81
2023/05/04 09:10:46;;;;;;;0.50;0.30;;;33.60;47.20;;;;;;5063066;28;20476;-78
2023/05/04 09:13:13;;;;;;;1.43;0.97;;;33.80;46.80;;;;;;5065698;28;20445;-81
2023/05/04 09:15:40;;;;;;;0.50;0.30;;;33.90;45.00;;;;;;5033345;22;1105237;-77
2023/05/04 09:18:08;;;;;;;0.50;0.50;;;34.00;45.20;;;;;;5048910;28;20273;-80
2023/05/04 09:20:44;;;;;;;0.50;0.30;;;33.00;45.50;;;;;;5052564;28;20452;-81
2023/05/04 09:23:13;;;;;;;0.50;0.30;;;32.90;46.50;;;;;;5048817;28;20533;-81
2023/05/04 09:25:47;;;;;;;0.50;0.50;;;33.30;46.60;;;;;;5046774;28;20536;-80
2023/05/04 09:28:14;;;;;;;0.50;0.40;;;34.00;43.60;;;;;;5045867;28;20502;-81
2023/05/04 09:30:41;;;;;;;0.50;0.50;;;34.30;44.00;;;;;;5044466;28;20477;-80
2023/05/04 09:33:09;;;;;;;0.50;0.40;;;34.60;46.30;;;;;;5043575;28;20441;-81
2023/05/04 09:35:39;;;;;;;0.40;0.30;;;34.30;42.80;;;;;;5044603;28;20487;-81
2023/05/04 09:38:07;;;;;;;0.40;0.30;;;35.10;45.10;;;;;;5043228;28;20461;-81
2023/05/04 09:40:36;;;;;;;0.80;0.80;;;35.50;43.80;;;;;;5046272;28;20452;-80
2023/05/04 09:43:05;;;;;;;0.40;0.30;;;35.40;42.90;;;;;;5047561;28;20798;-80
2023/05/04 09:45:39;;;;;;;2.63;2.53;;;35.20;41.90;;;;;;5042445;28;20857;-79
2023/05/04 09:48:16;;;;;;;0.80;0.80;;;35.20;42.80;;;;;;5036494;28;20438;-80
2023/05/04 09:50:48;;;;;;;0.67;0.67;;;35.10;40.30;;;;;;5030187;28;20849;-79
2023/05/04 09:53:19;;;;;;;0.40;0.30;;;35.10;40.70;;;;;;5038855;28;20495;-80
2023/05/04 09:55:53;;;;;;;0.60;0.60;;;34.90;41.20;;;;;;5038243;28;20533;-79
2023/05/04 09:58:21;;;;;;;0.50;0.30;;;34.60;39.80;;;;;;5043931;28;20877;-81
2023/05/04 10:00:48;;;;;;;0.50;0.30;;;33.90;41.40;;;;;;5035209;28;20440;-80
2023/05/04 10:03:15;;;;;;;0.40;0.30;;;34.10;42.40;;;;;;5046671;28;20441;-81
2023/05/04 10:05:42;;;;;;;1.17;0.47;;;34.00;43.70;;;;;;5045699;28;21130;-79
2023/05/04 10:08:09;;;;;;;0.80;0.80;;;34.10;40.80;;;;;;5045494;28;20433;-81
2023/05/04 10:10:38;;;;;;;0.50;0.30;;;31.30;41.30;;;;;;5039131;28;21023;-80
2023/05/04 10:13:07;;;;;;;0.80;0.53;;;30.90;43.60;;;;;;5051650;28;20456;-81
2023/05/04 10:15:35;;;;;;;0.60;0.43;;;31.40;45.30;;;;;;5041868;28;20484;-81
2023/05/04 10:18:14;;;;;;;0.50;0.30;;;31.70;43.50;;;;;;5046182;28;20446;-81
2023/05/04 10:20:57;;;;;;;0.50;0.30;;;30.30;43.10;;;;;;5046999;28;20449;-79
2023/05/04 10:23:57;;;;;;;1.00;0.80;;;30.60;44.70;;;;;;5042193;28;20508;-81
2023/05/04 10:26:41;;;;;;;1.30;1.10;;;29.90;42.20;;;;;;5042829;28;20799;-81
2023/05/04 10:29:21;;;;;;;0.50;0.40;;;29.30;42.80;;;;;;5042908;28;20434;-78
2023/05/04 10:31:48;;;;;;;0.50;0.30;;;29.10;44.40;;;;;;5042639;28;20521;-78
2023/05/04 10:34:24;;;;;;;0.50;0.37;;;28.70;44.80;;;;;;5039041;28;20445;-79
2023/05/04 10:36:51;;;;;;;0.70;0.40;;;29.60;45.60;;;;;;5057368;28;20551;-83
2023/05/04 10:39:22;;;;;;;0.50;0.50;;;30.20;45.00;;;;;;5041323;28;20437;-82
2023/05/04 10:42:00;;;;;;;0.60;0.50;;;30.10;42.60;;;;;;5039340;28;20532;-81
2023/05/04 10:44:29;;;;;;;0.50;0.30;;;28.80;43.90;;;;;;5050377;28;20436;-82
2023/05/04 10:46:57;;;;;;;0.97;0.97;;;29.40;45.50;;;;;;5054773;28;20473;-81
2023/05/04 10:49:24;;;;;;;0.50;0.40;;;30.50;45.10;;;;;;5036264;28;20442;-81
2023/05/04 10:52:03;;;;;;;0.50;0.50;;;30.20;43.70;;;;;;5035621;28;20509;-80
2023/05/04 10:54:30;;;;;;;1.77;1.67;;;30.80;43.30;;;;;;5034654;28;20534;-80
2023/05/04 10:57:03;;;;;;;0.50;0.50;;;31.00;43.10;;;;;;5044281;28;20479;-81
2023/05/04 10:59:33;;;;;;;0.50;0.40;;;31.80;45.20;;;;;;5045673;28;20461;-79
2023/05/04 11:02:01;;;;;;;0.50;0.30;;;32.10;43.50;;;;;;5035087;28;20446;-80
2023/05/04 11:04:28;;;;;;;0.60;0.57;;;32.60;42.60;;;;;;5042120;28;20524;-79
2023/05/04 11:07:02;;;;;;;0.50;0.40;;;33.20;43.30;;;;;;5038957;28;21032;-81
2023/05/04 11:09:37;;;;;;;0.43;0.30;;;33.20;39.80;;;;;;5042613;28;20494;-79
2023/05/04 11:12:04;;;;;;;1.53;1.17;;;33.00;41.00;;;;;;5038498;28;20809;-78
2023/05/04 11:14:36;;;;;;;0.50;0.30;;;32.50;42.00;;;;;;5036963;28;20453;-79
2023/05/04 11:17:06;;;;;;;0.50;0.30;;;32.30;40.70;;;;;;5042165;28;20461;-82
2023/05/04 11:19:34;;;;;;;0.50;0.40;;;31.60;40.10;;;;;;5036071;28;20445;-80
2023/05/04 11:22:01;;;;;;;2.10;1.57;;;31.50;40.00;;;;;;5033118;28;20453;-80
2023/05/04 11:24:39;;;;;;;1.80;0.43;;;30.80;42.00;;;;;;5039947;28;20444;-80
2023/05/04 11:27:06;;;;;;;0.60;0.50;;;31.00;40.70;;;;;;5035202;28;20460;-81
2023/05/04 11:29:34;;;;;;;0.80;0.40;;;31.40;40.00;;;;;;5043120;28;20490;-81
2023/05/04 11:32:01;;;;;;;1.17;1.00;;;31.10;40.30;;;;;;5044770;28;20438;-80
2023/05/04 11:34:27;;;;;;;0.50;0.30;;;31.10;40.60;;;;;;5039729;28;20442;-81
2023/05/04 11:36:54;;;;;;;1.00;1.00;;;31.30;41.60;;;;;;5032151;28;20462;-79
2023/05/04 11:39:21;;;;;;;0.60;0.50;;;31.60;41.30;;;;;;5038823;28;20430;-78
2023/05/04 11:41:48;;;;;;;0.50;0.30;;;31.80;41.70;;;;;;5045439;28;20520;-78
2023/05/04 11:44:16;;;;;;;0.50;0.30;;;32.10;41.40;;;;;;5035034;28;20484;-80
2023/05/04 11:46:46;;;;;;;0.70;0.57;;;32.70;41.00;;;;;;5034345;28;21231;-80
2023/05/04 11:49:14;;;;;;;0.87;0.50;;;33.40;41.80;;;;;;5033317;28;20853;-80
2023/05/04 11:51:41;;;;;;;0.40;0.30;;;33.80;41.00;;;;;;5035110;28;20477;-80
2023/05/04 11:54:07;;;;;;;0.47;0.30;;;34.10;40.30;;;;;;5035206;28;20469;-81
2023/05/04 11:56:43;;;;;;;0.50;0.30;;;34.10;41.20;;;;;;5035185;28;20529;-77
2023/05/04 11:59:10;;;;;;;0.40;0.30;;;34.50;39.60;;;;;;5035616;28;20442;-82
2023/05/04 12:01:37;;;;;;;0.50;0.40;;;35.00;41.30;;;;;;5034950;28;20438;-80
2023/05/04 12:04:06;;;;;;;0.50;0.30;;;34.90;37.80;;;;;;5034906;28;20438;-79
2023/05/04 12:06:34;;;;;;;0.50;0.30;;;34.50;38.50;;;;;;5034507;28;20460;-79
2023/05/04 12:09:05;;;;;;;0.67;0.50;;;34.60;40.80;;;;;;5034663;28;20936;-79
2023/05/04 12:11:33;;;;;;;0.67;0.67;;;34.30;38.70;;;;;;5034477;28;20474;-79
2023/05/04 12:14:05;;;;;;;1.27;0.60;;;33.80;37.60;;;;;;5034193;28;20444;-80
2023/05/04 12:16:31;;;;;;;0.50;0.30;;;32.70;38.10;;;;;;5034309;28;20995;-81
2023/05/04 12:19:03;;;;;;;0.60;0.40;;;32.60;41.50;;;;;;5034265;28;20933;-80
2023/05/04 12:21:32;;;;;;;6.10;0.80;;;33.20;40.20;;;;;;5035310;28;20441;-80
2023/05/04 12:23:59;;;;;;;0.80;0.70;;;33.20;37.80;;;;;;5034591;28;21011;-80
2023/05/04 12:26:26;;;;;;;0.80;0.70;;;32.20;38.10;;;;;;5034522;28;20458;-79
2023/05/04 12:28:53;;;;;;;0.53;0.53;;;32.30;39.50;;;;;;5035030;28;20521;-80
2023/05/04 12:31:20;;;;;;;0.70;0.40;;;32.60;37.90;;;;;;5026675;28;20500;-80
2023/05/04 12:33:49;;;;;;;0.50;0.30;;;32.80;39.10;;;;;;5034320;28;20477;-78
2023/05/04 12:36:16;;;;;;;0.50;0.30;;;32.90;37.70;;;;;;5034236;28;20461;-80
2023/05/04 12:38:44;;;;;;;0.50;0.30;;;33.00;38.10;;;;;;5034461;28;20953;-80
2023/05/04 12:41:11;;;;;;;0.40;0.30;;;33.20;37.20;;;;;;5034195;28;20526;-79
2023/05/04 12:43:39;;;;;;;0.50;0.30;;;33.20;37.30;;;;;;5034372;28;20525;-80
2023/05/04 12:46:05;;;;;;;0.50;0.33;;;33.50;38.50;;;;;;5034573;28;20465;-79
2023/05/04 12:48:33;;;;;;;0.43;0.40;;;33.90;37.20;;;;;;5034262;28;20446;-80
2023/05/04 12:51:00;;;;;;;0.40;0.30;;;34.10;37.00;;;;;;5033995;28;20512;-80
2023/05/04 12:53:28;;;;;;;0.40;0.30;;;34.70;39.60;;;;;;5034455;28;20529;-80
2023/05/04 12:55:57;;;;;;;0.50;0.30;;;35.10;36.40;;;;;;5033948;28;20843;-79